createdAt,value
2019-04-25T00:02:21.311Z,22.53
2019-04-25T00:04:51.564Z,19.20
2019-04-25T00:07:21.717Z,21.10
2019-04-25T00:09:52.849Z,20.50
2019-04-25T00:12:22.711Z,18.67
2019-04-25T00:14:52.089Z,17.40
2019-04-25T00:17:22.706Z,21.70
2019-04-25T00:19:52.858Z,17.57
2019-04-25T00:22:33.148Z,19.23
2019-04-25T00:25:15.201Z,25.23
2019-04-25T00:27:38.255Z,21.10
2019-04-25T00:30:11.997Z,21.47
2019-04-25T00:32:43.168Z,21.00
2019-04-25T00:35:13.502Z,22.57
2019-04-25T00:37:48.606Z,22.73
2019-04-25T00:40:17.880Z,20.03
2019-04-25T00:42:47.223Z,14.17
2019-04-25T00:45:16.386Z,21.73
2019-04-25T00:47:45.864Z,23.67
2019-04-25T00:50:15.375Z,19.73
2019-04-25T00:52:44.880Z,17.77
2019-04-25T00:55:25.937Z,26.23
2019-04-25T00:57:47.107Z,18.67
2019-04-25T01:00:34.696Z,19.13
2019-04-25T01:03:05.834Z,24.67
2019-04-25T01:05:35.279Z,17.00
2019-04-25T01:08:04.530Z,19.23
2019-04-25T01:10:34.276Z,19.23
2019-04-25T01:13:03.581Z,20.33
2019-04-25T01:15:34.977Z,17.50
2019-04-25T01:18:04.586Z,18.00
2019-04-25T01:20:34.517Z,21.17
2019-04-25T01:23:04.394Z,17.33
2019-04-25T01:25:40.911Z,20.13
2019-04-25T01:28:05.196Z,17.67
2019-04-25T01:30:35.213Z,15.93
2019-04-25T01:33:06.287Z,19.20
2019-04-25T01:35:44.785Z,18.73
2019-04-25T01:38:24.702Z,20.20
2019-04-25T01:40:58.460Z,17.77
2019-04-25T01:43:38.639Z,18.10
2019-04-25T01:46:10.578Z,24.40
2019-04-25T01:48:39.920Z,19.67
2019-04-25T01:51:09.358Z,21.00
2019-04-25T01:53:39.568Z,21.07
2019-04-25T01:56:08.872Z,16.63
2019-04-25T01:58:40.439Z,18.83
2019-04-25T02:01:10.295Z,18.40
2019-04-25T02:03:39.500Z,22.00
2019-04-25T02:06:08.725Z,18.07
2019-04-25T02:08:37.933Z,18.13
2019-04-25T02:11:25.195Z,16.20
2019-04-25T02:13:54.979Z,16.87
2019-04-25T02:16:26.135Z,21.17
2019-04-25T02:18:57.736Z,18.33
2019-04-25T02:21:27.493Z,15.27
2019-04-25T02:23:56.726Z,19.37
2019-04-25T02:26:25.891Z,27.13
2019-04-25T02:28:56.092Z,16.30
2019-04-25T02:31:25.848Z,22.93
2019-04-25T02:33:57.847Z,18.17
2019-04-25T02:36:26.356Z,20.90
2019-04-25T02:38:58.559Z,21.30
2019-04-25T02:41:26.453Z,21.63
2019-04-25T02:43:59.747Z,16.73
2019-04-25T02:46:45.041Z,19.43
2019-04-25T02:49:36.878Z,20.03
2019-04-25T02:52:07.783Z,22.70
2019-04-25T02:54:35.006Z,17.47
2019-04-25T02:57:07.777Z,18.40
2019-04-25T02:59:37.077Z,20.37
2019-04-25T03:02:09.091Z,18.33
2019-04-25T03:04:38.182Z,26.60
2019-04-25T03:07:11.122Z,18.43
2019-04-25T03:09:38.356Z,18.13
2019-04-25T03:12:09.349Z,20.57
2019-04-25T03:14:38.643Z,21.97
2019-04-25T03:17:09.719Z,21.07
2019-04-25T03:19:59.873Z,19.93
2019-04-25T03:22:31.399Z,18.00
2019-04-25T03:25:02.251Z,20.83
2019-04-25T03:27:31.975Z,21.83
2019-04-25T03:30:01.942Z,34.67
2019-04-25T03:32:31.411Z,22.43
2019-04-25T03:35:01.298Z,16.13
2019-04-25T03:37:30.775Z,23.23
2019-04-25T03:40:00.049Z,23.60
2019-04-25T03:42:29.297Z,23.50
2019-04-25T03:44:58.461Z,22.73
2019-04-25T03:47:27.763Z,18.43
2019-04-25T03:49:56.938Z,19.97
2019-04-25T03:52:26.107Z,19.67
2019-04-25T03:54:56.781Z,19.53
2019-04-25T03:57:26.157Z,19.90
2019-04-25T03:59:55.320Z,25.77
2019-04-25T04:02:24.485Z,22.27
2019-04-25T04:04:53.903Z,19.20
2019-04-25T04:07:23.821Z,16.83
2019-04-25T04:09:54.890Z,19.87
2019-04-25T04:12:24.904Z,27.83
2019-04-25T04:14:54.069Z,30.13
2019-04-25T04:17:41.222Z,22.00
2019-04-25T04:20:14.557Z,19.43
2019-04-25T04:22:45.134Z,29.23
2019-04-25T04:25:16.039Z,16.30
2019-04-25T04:27:45.226Z,29.50
2019-04-25T04:30:15.361Z,26.47
2019-04-25T04:32:44.981Z,27.60
2019-04-25T04:35:15.133Z,26.33
2019-04-25T04:37:46.177Z,19.67
2019-04-25T04:40:17.255Z,28.97
2019-04-25T04:42:46.429Z,22.43
2019-04-25T04:45:16.554Z,29.60
2019-04-25T04:47:46.631Z,24.13
2019-04-25T04:50:16.658Z,26.53
2019-04-25T04:52:46.379Z,26.63
2019-04-25T04:55:17.372Z,19.73
2019-04-25T04:57:46.887Z,22.00
2019-04-25T05:00:16.849Z,30.87
2019-04-25T05:02:50.990Z,21.37
2019-04-25T05:05:24.959Z,25.50
2019-04-25T05:08:03.777Z,15.20
2019-04-25T05:10:33.312Z,32.07
2019-04-25T05:13:04.248Z,22.33
2019-04-25T05:15:33.843Z,34.37
2019-04-25T05:18:04.036Z,25.10
2019-04-25T05:20:35.581Z,26.73
2019-04-25T05:23:04.991Z,24.03
2019-04-25T05:25:34.647Z,21.03
2019-04-25T05:28:05.302Z,23.43
2019-04-25T05:30:39.136Z,26.50
2019-04-25T05:33:08.297Z,24.77
2019-04-25T05:35:37.454Z,23.87
2019-04-25T05:38:06.646Z,19.63
2019-04-25T05:40:37.550Z,22.00
2019-04-25T05:43:08.347Z,28.10
2019-04-25T05:45:37.566Z,21.47
2019-04-25T05:48:06.878Z,28.00
2019-04-25T05:50:36.038Z,26.97
2019-04-25T05:53:05.249Z,23.30
2019-04-25T05:55:34.478Z,28.57
2019-04-25T05:58:04.077Z,29.23
2019-04-25T06:00:34.167Z,29.30
2019-04-25T06:03:03.748Z,31.63
2019-04-25T06:05:33.641Z,20.97
2019-04-25T06:08:04.494Z,22.47
2019-04-25T06:10:39.566Z,18.17
2019-04-25T06:13:13.801Z,21.47
2019-04-25T06:15:48.484Z,18.70
2019-04-25T06:18:28.522Z,23.30
2019-04-25T06:20:57.682Z,19.33
2019-04-25T06:23:45.804Z,23.23
2019-04-25T06:26:24.769Z,19.80
2019-04-25T06:28:52.269Z,22.60
2019-04-25T06:31:19.757Z,22.40
2019-04-25T06:33:49.261Z,29.20
2019-04-25T06:36:18.743Z,15.73
2019-04-25T06:38:48.491Z,22.63
2019-04-25T06:41:17.682Z,20.53
2019-04-25T06:43:48.523Z,23.47
2019-04-25T06:46:35.442Z,22.90
2019-04-25T06:49:09.479Z,23.90
2019-04-25T06:51:51.909Z,20.80
2019-04-25T06:54:21.979Z,20.63
2019-04-25T06:56:53.564Z,24.70
2019-04-25T06:59:25.937Z,21.67
2019-04-25T07:01:56.245Z,17.93
2019-04-25T07:04:27.094Z,22.93
2019-04-25T07:07:09.369Z,24.30
2019-04-25T07:09:29.587Z,20.40
2019-04-25T07:11:58.866Z,22.73
2019-04-25T07:14:28.215Z,24.30
2019-04-25T07:16:57.526Z,23.43
2019-04-25T07:19:27.980Z,21.57
2019-04-25T07:21:57.447Z,18.30
2019-04-25T07:24:27.264Z,22.80
2019-04-25T07:27:05.309Z,28.50
2019-04-25T07:29:36.183Z,20.10
2019-04-25T07:32:24.232Z,20.27
2019-04-25T07:34:53.621Z,25.90
2019-04-25T07:37:25.954Z,24.47
2019-04-25T07:39:55.403Z,21.77
2019-04-25T07:42:25.945Z,20.50
2019-04-25T07:44:55.386Z,17.90
2019-04-25T07:47:24.675Z,19.00
2019-04-25T07:49:54.613Z,23.03
2019-04-25T07:52:24.193Z,18.90
2019-04-25T07:54:53.917Z,23.90
2019-04-25T07:57:23.824Z,17.90
2019-04-25T07:59:53.764Z,23.20
2019-04-25T08:02:23.436Z,17.40
2019-04-25T08:04:54.139Z,26.47
2019-04-25T08:07:24.069Z,18.70
2019-04-25T08:09:54.276Z,22.13
2019-04-25T08:12:25.247Z,20.60
2019-04-25T08:14:59.046Z,17.33
2019-04-25T08:17:46.654Z,22.27
2019-04-25T08:20:17.271Z,20.10
2019-04-25T08:22:56.273Z,21.80
2019-04-25T08:25:18.265Z,26.73
2019-04-25T08:27:47.534Z,23.63
2019-04-25T08:30:17.707Z,20.23
2019-04-25T08:32:47.018Z,23.63
2019-04-25T08:35:16.369Z,21.97
2019-04-25T08:37:46.547Z,21.67
2019-04-25T08:40:16.948Z,23.37
2019-04-25T08:42:46.220Z,20.87
2019-04-25T08:45:16.332Z,24.33
2019-04-25T08:47:45.555Z,17.90
2019-04-25T08:50:29.110Z,20.27
2019-04-25T08:52:50.585Z,19.17
2019-04-25T08:55:38.315Z,23.13
2019-04-25T08:58:15.423Z,21.97
2019-04-25T09:01:04.019Z,24.33
2019-04-25T09:03:40.902Z,19.83
2019-04-25T09:06:10.927Z,16.13
2019-04-25T09:08:41.014Z,25.13
2019-04-25T09:11:10.713Z,22.87
2019-04-25T09:13:39.913Z,26.90
2019-04-25T09:16:09.069Z,27.67
2019-04-25T09:18:38.247Z,23.07
2019-04-25T09:21:07.514Z,25.33
2019-04-25T09:23:37.861Z,28.43
2019-04-25T09:26:07.209Z,21.97
2019-04-25T09:28:39.141Z,20.83
2019-04-25T09:31:07.558Z,20.53
2019-04-25T09:33:37.190Z,15.30
2019-04-25T09:36:06.918Z,18.20
2019-04-25T09:38:36.926Z,22.50
2019-04-25T09:41:06.373Z,18.97
2019-04-25T09:43:35.843Z,22.37
2019-04-25T09:46:07.100Z,16.33
2019-04-25T09:48:44.639Z,19.03
2019-04-25T09:51:19.397Z,27.27
2019-04-25T09:53:51.460Z,21.80
2019-04-25T09:56:23.918Z,20.33
2019-04-25T09:58:55.047Z,23.30
2019-04-25T10:01:25.380Z,33.50
2019-04-25T10:03:54.610Z,17.63
2019-04-25T10:06:24.119Z,21.47
2019-04-25T10:08:54.307Z,21.80
2019-04-25T10:11:23.825Z,26.70
2019-04-25T10:14:05.064Z,21.37
2019-04-25T10:16:35.062Z,24.40
2019-04-25T10:19:04.644Z,23.27
2019-04-25T10:21:34.323Z,27.33
2019-04-25T10:24:04.190Z,20.37
2019-04-25T10:26:34.913Z,22.87
2019-04-25T10:29:05.157Z,24.60
2019-04-25T10:31:34.401Z,20.20
2019-04-25T10:34:04.210Z,24.17
2019-04-25T10:36:33.688Z,26.67
2019-04-25T10:39:08.595Z,22.87
2019-04-25T10:41:35.929Z,16.77
2019-04-25T10:44:05.938Z,26.03
2019-04-25T10:46:35.242Z,26.60
2019-04-25T10:49:04.557Z,19.77
2019-04-25T10:51:34.330Z,28.23
2019-04-25T10:54:04.109Z,17.00
2019-04-25T10:56:33.637Z,17.63
2019-04-25T10:59:04.251Z,27.10
2019-04-25T11:01:34.979Z,19.27
2019-04-25T11:04:06.556Z,26.47
2019-04-25T11:06:35.896Z,25.37
2019-04-25T11:09:07.468Z,23.80
2019-04-25T11:11:36.685Z,21.20
2019-04-25T11:14:07.460Z,19.13
2019-04-25T11:16:36.866Z,22.53
2019-04-25T11:19:06.177Z,22.93
2019-04-25T11:21:35.586Z,24.63
2019-04-25T11:24:05.366Z,23.87
2019-04-25T11:26:34.765Z,29.77
2019-04-25T11:29:04.430Z,21.37
2019-04-25T11:31:35.534Z,23.53
2019-04-25T11:34:05.432Z,20.67
2019-04-25T11:36:34.622Z,24.53
2019-04-25T11:39:23.913Z,23.17
2019-04-25T11:41:55.351Z,21.37
2019-04-25T11:44:24.628Z,24.93
2019-04-25T11:46:54.299Z,18.50
2019-04-25T11:49:24.546Z,19.77
2019-04-25T11:51:54.468Z,26.33
2019-04-25T11:54:24.401Z,18.97
2019-04-25T11:56:54.778Z,19.30
2019-04-25T11:59:24.984Z,21.80
2019-04-25T12:01:56.099Z,23.07
2019-04-25T12:04:25.036Z,25.87
2019-04-25T12:06:54.218Z,28.87
2019-04-25T12:09:24.155Z,20.20
2019-04-25T12:11:54.465Z,21.53
2019-04-25T12:14:25.321Z,32.67
2019-04-25T12:16:56.104Z,19.73
2019-04-25T12:19:35.035Z,27.73
2019-04-25T12:21:58.179Z,26.30
2019-04-25T12:24:27.353Z,19.50
2019-04-25T12:26:56.571Z,23.70
2019-04-25T12:29:25.791Z,24.90
2019-04-25T12:31:55.041Z,27.23
2019-04-25T12:34:24.374Z,24.00
2019-04-25T12:36:54.495Z,25.67
2019-04-25T12:39:24.353Z,26.90
2019-04-25T12:41:54.509Z,25.67
2019-04-25T12:44:29.536Z,23.97
2019-04-25T12:47:18.164Z,22.90
2019-04-25T12:49:48.667Z,21.03
2019-04-25T12:52:18.025Z,27.90
2019-04-25T12:54:47.589Z,20.67
2019-04-25T12:57:17.078Z,24.40
2019-04-25T12:59:47.302Z,29.00
2019-04-25T13:02:17.009Z,30.73
2019-04-25T13:04:47.668Z,20.97
2019-04-25T13:07:16.990Z,28.37
2019-04-25T13:09:47.067Z,35.80
2019-04-25T13:12:17.475Z,24.73
2019-04-25T13:14:46.719Z,30.03
2019-04-25T13:17:16.153Z,30.53
2019-04-25T13:19:45.309Z,36.33
2019-04-25T13:22:15.131Z,34.90
2019-04-25T13:24:44.359Z,26.63
2019-04-25T13:27:15.260Z,28.33
2019-04-25T13:30:03.767Z,25.87
2019-04-25T13:32:35.192Z,23.60
2019-04-25T13:35:09.885Z,24.27
2019-04-25T13:37:40.062Z,25.23
2019-04-25T13:40:10.113Z,29.60
2019-04-25T13:42:39.339Z,31.27
2019-04-25T13:45:08.666Z,34.53
2019-04-25T13:47:38.060Z,24.67
2019-04-25T13:50:08.075Z,22.63
2019-04-25T13:52:37.301Z,30.30
2019-04-25T13:55:06.590Z,22.33
2019-04-25T13:57:35.785Z,29.47
2019-04-25T14:00:06.965Z,26.07
2019-04-25T14:02:36.205Z,21.10
2019-04-25T14:05:08.009Z,26.50
2019-04-25T14:07:37.237Z,23.77
2019-04-25T14:10:06.964Z,22.07
2019-04-25T14:12:36.177Z,30.43
2019-04-25T14:15:07.528Z,19.37
2019-04-25T14:17:54.941Z,25.83
2019-04-25T14:20:34.693Z,26.80
2019-04-25T14:23:04.760Z,23.70
2019-04-25T14:25:36.383Z,23.10
2019-04-25T14:28:06.220Z,22.23
2019-04-25T14:30:36.034Z,25.50
2019-04-25T14:33:05.556Z,27.43
2019-04-25T14:35:34.793Z,23.03
2019-04-25T14:38:04.631Z,21.93
2019-04-25T14:40:34.770Z,19.17
2019-04-25T14:43:04.883Z,21.87
2019-04-25T14:45:43.992Z,24.90
2019-04-25T14:48:05.285Z,22.00
2019-04-25T14:50:34.779Z,25.80
2019-04-25T14:53:04.131Z,21.23
2019-04-25T14:55:35.158Z,22.60
2019-04-25T14:58:06.036Z,24.90
2019-04-25T15:00:43.057Z,24.50
2019-04-25T15:03:12.218Z,26.33
2019-04-25T15:05:43.506Z,30.27
2019-04-25T15:08:12.975Z,26.93
2019-04-25T15:10:42.132Z,28.23
2019-04-25T15:13:11.453Z,29.33
2019-04-25T15:15:40.725Z,20.83
2019-04-25T15:18:09.885Z,22.83
2019-04-25T15:20:39.277Z,18.70
2019-04-25T15:23:08.475Z,27.40
2019-04-25T15:25:37.622Z,26.50
2019-04-25T15:28:06.937Z,20.40
2019-04-25T15:30:38.286Z,19.07
2019-04-25T15:33:07.650Z,20.17
2019-04-25T15:35:41.143Z,24.90
2019-04-25T15:38:20.859Z,24.77
2019-04-25T15:40:54.507Z,29.47
2019-04-25T15:43:28.414Z,21.20
2019-04-25T15:46:08.051Z,30.07
2019-04-25T15:48:37.922Z,29.30
2019-04-25T15:51:07.085Z,32.13
2019-04-25T15:53:36.323Z,32.53
2019-04-25T15:56:06.930Z,23.57
2019-04-25T15:58:37.358Z,27.33
2019-04-25T16:01:08.257Z,20.20
2019-04-25T16:03:37.525Z,27.73
2019-04-25T16:06:06.697Z,33.93
2019-04-25T16:08:35.865Z,26.40
2019-04-25T16:11:05.331Z,31.53
2019-04-25T16:13:34.583Z,33.20
2019-04-25T16:16:04.539Z,38.77
2019-04-25T16:18:33.909Z,25.80
2019-04-25T16:21:03.311Z,22.10
2019-04-25T16:23:32.544Z,26.37
2019-04-25T16:26:01.832Z,21.47
2019-04-25T16:28:31.742Z,25.90
2019-04-25T16:31:04.296Z,30.60
2019-04-25T16:33:33.212Z,27.27
2019-04-25T16:36:02.950Z,23.97
2019-04-25T16:38:33.285Z,26.40
2019-04-25T16:41:04.432Z,22.00
2019-04-25T16:43:35.271Z,26.83
2019-04-25T16:46:04.566Z,27.90
2019-04-25T16:48:34.478Z,24.90
2019-04-25T16:51:03.650Z,33.97
2019-04-25T16:53:32.887Z,31.20
2019-04-25T16:56:02.086Z,24.77
2019-04-25T16:58:31.467Z,26.73
2019-04-25T17:01:11.583Z,25.73
2019-04-25T17:03:41.503Z,32.20
2019-04-25T17:06:10.861Z,25.53
2019-04-25T17:08:40.287Z,20.20
2019-04-25T17:11:10.032Z,31.00
2019-04-25T17:13:40.899Z,26.50
2019-04-25T17:16:11.820Z,29.97
2019-04-25T17:18:42.694Z,20.80
2019-04-25T17:21:11.923Z,29.20
2019-04-25T17:23:41.285Z,26.73
2019-04-25T17:26:10.677Z,35.50
2019-04-25T17:28:41.541Z,34.67
2019-04-25T17:31:24.293Z,37.50
2019-04-25T17:34:04.809Z,39.13
2019-04-25T17:36:38.910Z,30.83
2019-04-25T17:39:09.711Z,30.60
2019-04-25T17:41:38.883Z,35.60
2019-04-25T17:44:08.159Z,35.60
2019-04-25T17:46:37.328Z,36.07
2019-04-25T17:49:06.617Z,30.03
2019-04-25T17:51:36.641Z,25.97
2019-04-25T17:54:06.820Z,24.83
2019-04-25T17:56:38.523Z,30.33
2019-04-25T17:59:08.394Z,36.93
2019-04-25T18:01:37.972Z,25.57
2019-04-25T18:04:10.531Z,26.43
2019-04-25T18:06:42.014Z,32.30
2019-04-25T18:09:11.602Z,29.60
2019-04-25T18:11:40.841Z,28.87
2019-04-25T18:14:10.045Z,28.93
2019-04-25T18:16:40.851Z,28.47
2019-04-25T18:19:12.702Z,27.63
2019-04-25T18:21:42.835Z,25.90
2019-04-25T18:24:30.608Z,22.70
2019-04-25T18:27:01.588Z,28.83
2019-04-25T18:29:30.740Z,37.20
2019-04-25T18:31:59.907Z,26.90
2019-04-25T18:34:46.793Z,30.53
2019-04-25T18:37:26.619Z,32.30
2019-04-25T18:40:03.646Z,33.23
2019-04-25T18:42:37.839Z,25.27
2019-04-25T18:45:08.619Z,31.97
2019-04-25T18:47:38.243Z,26.97
2019-04-25T18:50:09.287Z,27.57
2019-04-25T18:52:47.124Z,29.00
2019-04-25T18:55:23.735Z,36.83
2019-04-25T18:57:54.573Z,30.13
2019-04-25T19:00:25.532Z,28.83
2019-04-25T19:02:56.406Z,41.90
2019-04-25T19:05:30.253Z,29.17
2019-04-25T19:07:59.415Z,31.03
2019-04-25T19:10:28.575Z,36.30
2019-04-25T19:12:57.782Z,34.80
2019-04-25T19:15:27.113Z,27.97
2019-04-25T19:17:56.329Z,28.10
2019-04-25T19:20:25.612Z,33.23
2019-04-25T19:22:54.781Z,32.90
2019-04-25T19:25:24.006Z,34.27
2019-04-25T19:27:53.205Z,39.60
2019-04-25T19:30:23.007Z,38.97
2019-04-25T19:32:52.176Z,31.37
2019-04-25T19:35:21.530Z,36.60
2019-04-25T19:37:51.247Z,36.13
2019-04-25T19:40:22.110Z,33.63
2019-04-25T19:42:55.355Z,36.70
2019-04-25T19:45:24.506Z,33.90
2019-04-25T19:47:53.663Z,32.13
2019-04-25T19:50:23.340Z,38.87
2019-04-25T19:52:52.582Z,37.80
2019-04-25T19:55:21.735Z,34.17
2019-04-25T19:57:50.932Z,33.10
2019-04-25T20:00:20.493Z,28.87
2019-04-25T20:02:59.952Z,34.40
2019-04-25T20:05:33.232Z,33.67
2019-04-25T20:08:12.980Z,42.97
2019-04-25T20:10:44.998Z,34.60
2019-04-25T20:13:14.401Z,33.97
2019-04-25T20:15:44.574Z,39.27
2019-04-25T20:18:14.683Z,46.90
2019-04-25T20:20:45.014Z,42.43
2019-04-25T20:23:14.921Z,43.17
2019-04-25T20:25:45.393Z,35.03
2019-04-25T20:28:15.073Z,30.40
2019-04-25T20:30:45.452Z,33.87
2019-04-25T20:33:14.913Z,35.87
2019-04-25T20:35:44.885Z,41.47
2019-04-25T20:38:16.869Z,39.67
2019-04-25T20:40:46.710Z,34.87
2019-04-25T20:43:17.079Z,30.67
2019-04-25T20:45:46.932Z,35.37
2019-04-25T20:48:17.334Z,35.43
2019-04-25T20:50:46.923Z,33.70
2019-04-25T20:53:16.352Z,31.43
2019-04-25T20:55:46.470Z,39.40
2019-04-25T20:58:16.394Z,34.23
2019-04-25T21:00:48.337Z,29.00
2019-04-25T21:03:18.680Z,35.83
2019-04-25T21:05:49.700Z,33.40
2019-04-25T21:08:19.520Z,42.33
2019-04-25T21:10:49.629Z,36.33
2019-04-25T21:13:21.190Z,32.67
2019-04-25T21:15:52.202Z,29.93
2019-04-25T21:18:29.505Z,37.93
2019-04-25T21:20:59.184Z,33.50
2019-04-25T21:23:28.834Z,32.20
2019-04-25T21:25:58.887Z,42.83
2019-04-25T21:28:28.659Z,32.30
2019-04-25T21:30:58.731Z,37.67
2019-04-25T21:33:28.168Z,41.30
2019-04-25T21:35:58.047Z,34.93
2019-04-25T21:38:27.402Z,36.83
2019-04-25T21:40:58.278Z,32.53
2019-04-25T21:43:32.338Z,40.60
2019-04-25T21:46:02.792Z,32.27
2019-04-25T21:48:32.502Z,39.60
2019-04-25T21:51:03.659Z,33.03
2019-04-25T21:53:32.863Z,32.87
2019-04-25T21:56:02.601Z,41.33
2019-04-25T21:58:32.185Z,34.20
2019-04-25T22:01:04.481Z,44.73
2019-04-25T22:03:34.444Z,37.27
2019-04-25T22:06:05.003Z,30.13
2019-04-25T22:08:34.444Z,37.20
2019-04-25T22:11:03.681Z,35.23
2019-04-25T22:13:33.136Z,31.73
2019-04-25T22:16:02.831Z,42.97
2019-04-25T22:18:33.293Z,39.40
2019-04-25T22:21:02.566Z,38.23
2019-04-25T22:23:32.877Z,40.10
2019-04-25T22:26:02.963Z,33.20
2019-04-25T22:28:33.910Z,40.47
2019-04-25T22:31:13.992Z,35.23
2019-04-25T22:33:47.628Z,30.00
2019-04-25T22:36:22.560Z,28.47
2019-04-25T22:39:09.656Z,33.70
2019-04-25T22:41:46.561Z,32.53
2019-04-25T22:44:15.790Z,33.37
2019-04-25T22:46:45.552Z,31.13
2019-04-25T22:49:15.315Z,29.43
2019-04-25T22:51:44.527Z,33.30
2019-04-25T22:54:14.068Z,26.77
2019-04-25T22:56:43.307Z,33.70
2019-04-25T22:59:13.239Z,30.10
2019-04-25T23:01:46.455Z,28.87
2019-04-25T23:04:26.102Z,35.23
2019-04-25T23:06:55.343Z,36.60
2019-04-25T23:09:24.872Z,31.57
2019-04-25T23:11:54.560Z,26.30
2019-04-25T23:14:24.099Z,32.50
2019-04-25T23:16:53.707Z,32.67
2019-04-25T23:19:23.363Z,30.43
2019-04-25T23:21:53.005Z,29.77
2019-04-25T23:24:23.900Z,32.57
2019-04-25T23:27:05.269Z,37.97
2019-04-25T23:29:35.670Z,32.53
2019-04-25T23:32:06.678Z,25.63
2019-04-25T23:34:36.155Z,36.23
2019-04-25T23:37:06.222Z,35.23
2019-04-25T23:39:36.262Z,33.50
2019-04-25T23:42:06.064Z,27.63
2019-04-25T23:44:36.605Z,30.83
2019-04-25T23:47:06.871Z,31.27
2019-04-25T23:49:36.826Z,29.83
2019-04-25T23:52:07.315Z,35.17
2019-04-25T23:54:36.841Z,32.47
2019-04-25T23:57:07.073Z,32.40
2019-04-25T23:59:37.297Z,27.67
